createdAt,value
2018-01-22T00:00:35.722Z,1.80
2018-01-22T00:03:02.238Z,1.97
2018-01-22T00:05:28.413Z,2.30
2018-01-22T00:07:54.630Z,2.03
2018-01-22T00:10:20.831Z,1.70
2018-01-22T00:12:47.011Z,1.97
2018-01-22T00:15:13.264Z,1.70
2018-01-22T00:17:39.427Z,1.80
2018-01-22T00:20:05.609Z,2.00
2018-01-22T00:22:31.886Z,1.80
2018-01-22T00:24:58.102Z,1.97
2018-01-22T00:27:24.311Z,2.00
2018-01-22T00:29:50.820Z,2.00
2018-01-22T00:32:20.997Z,2.10
2018-01-22T00:34:47.186Z,1.90
2018-01-22T00:37:13.783Z,1.80
2018-01-22T00:39:40.336Z,2.20
2018-01-22T00:42:06.886Z,1.93
2018-01-22T00:44:33.167Z,1.50
2018-01-22T00:46:59.432Z,2.00
2018-01-22T00:49:25.688Z,2.10
2018-01-22T00:51:52.198Z,2.00
2018-01-22T00:54:18.450Z,1.53
2018-01-22T00:56:45.038Z,2.07
2018-01-22T00:59:11.306Z,1.87
2018-01-22T01:01:37.526Z,1.70
2018-01-22T01:04:04.114Z,1.83
2018-01-22T01:06:30.332Z,2.10
2018-01-22T01:08:56.513Z,1.60
2018-01-22T01:11:22.792Z,1.87
2018-01-22T01:13:49.192Z,1.97
2018-01-22T01:16:15.443Z,1.60
2018-01-22T01:18:41.719Z,1.80
2018-01-22T01:21:07.922Z,2.13
2018-01-22T01:23:34.105Z,2.07
2018-01-22T01:26:00.727Z,2.00
2018-01-22T01:28:26.986Z,2.10
2018-01-22T01:30:53.494Z,1.63
2018-01-22T01:33:19.775Z,1.53
2018-01-22T01:35:45.997Z,1.60
2018-01-22T01:38:12.253Z,1.80
2018-01-22T01:40:38.543Z,1.93
2018-01-22T01:43:05.156Z,1.87
2018-01-22T01:45:31.677Z,2.10
2018-01-22T01:47:58.332Z,2.00
2018-01-22T01:50:24.859Z,1.83
2018-01-22T01:52:51.040Z,2.17
2018-01-22T01:55:17.262Z,1.50
2018-01-22T01:57:43.478Z,1.97
2018-01-22T02:00:09.751Z,1.97
2018-01-22T02:02:36.023Z,1.73
2018-01-22T02:05:02.523Z,1.70
2018-01-22T02:07:28.744Z,1.53
2018-01-22T02:09:55.295Z,1.47
2018-01-22T02:12:21.545Z,1.90
2018-01-22T02:14:47.787Z,1.70
2018-01-22T02:17:14.360Z,1.90
2018-01-22T02:19:40.566Z,1.53
2018-01-22T02:22:06.816Z,2.00
2018-01-22T02:24:33.061Z,1.50
2018-01-22T02:26:59.242Z,1.87
2018-01-22T02:29:25.845Z,1.60
2018-01-22T02:31:52.059Z,1.90
2018-01-22T02:34:18.302Z,1.80
2018-01-22T02:36:44.543Z,1.83
2018-01-22T02:39:10.798Z,1.83
2018-01-22T02:41:37.393Z,1.63
2018-01-22T02:44:03.691Z,1.90
2018-01-22T02:46:29.936Z,1.60
2018-01-22T02:48:56.225Z,2.00
2018-01-22T02:51:22.812Z,1.87
2018-01-22T02:53:48.994Z,2.00
2018-01-22T02:56:15.181Z,1.90
2018-01-22T02:58:41.396Z,1.80
2018-01-22T03:01:07.621Z,1.50
2018-01-22T03:03:33.890Z,1.70
2018-01-22T03:06:00.120Z,1.93
2018-01-22T03:08:26.308Z,2.03
2018-01-22T03:10:52.608Z,1.60
2018-01-22T03:13:18.914Z,1.70
2018-01-22T03:15:45.139Z,1.63
2018-01-22T03:18:11.725Z,1.97
2018-01-22T03:20:37.932Z,1.83
2018-01-22T03:23:04.494Z,1.57
2018-01-22T03:25:31.330Z,1.70
2018-01-22T03:27:57.588Z,1.57
2018-01-22T03:30:24.103Z,1.67
2018-01-22T03:32:50.358Z,1.80
2018-01-22T03:35:16.570Z,1.67
2018-01-22T03:37:42.870Z,1.60
2018-01-22T03:40:09.321Z,2.30
2018-01-22T03:42:35.526Z,1.53
2018-01-22T03:45:02.090Z,1.80
2018-01-22T03:47:28.316Z,2.03
2018-01-22T03:49:54.554Z,1.90
2018-01-22T03:52:21.116Z,1.67
2018-01-22T03:54:47.355Z,1.97
2018-01-22T03:57:13.563Z,1.50
2018-01-22T03:59:39.806Z,1.90
2018-01-22T04:02:06.049Z,1.60
2018-01-22T04:04:32.274Z,1.70
2018-01-22T04:06:58.489Z,1.80
2018-01-22T04:09:24.981Z,1.57
2018-01-22T04:11:51.297Z,1.70
2018-01-22T04:14:17.513Z,2.00
2018-01-22T04:16:43.772Z,1.40
2018-01-22T04:19:10.062Z,1.97
2018-01-22T04:21:36.257Z,1.40
2018-01-22T04:24:02.527Z,1.97
2018-01-22T04:26:29.153Z,1.53
2018-01-22T04:28:55.736Z,2.00
2018-01-22T04:31:22.254Z,1.73
2018-01-22T04:33:48.443Z,1.70
2018-01-22T04:36:14.757Z,2.00
2018-01-22T04:38:41.079Z,1.80
2018-01-22T04:41:07.277Z,1.73
2018-01-22T04:43:33.546Z,1.70
2018-01-22T04:46:00.045Z,1.70
2018-01-22T04:48:26.296Z,1.80
2018-01-22T04:50:52.508Z,1.57
2018-01-22T04:53:19.132Z,1.80
2018-01-22T04:55:45.317Z,1.53
2018-01-22T04:58:11.569Z,1.50
2018-01-22T05:00:37.822Z,1.77
2018-01-22T05:03:04.061Z,1.87
2018-01-22T05:05:30.296Z,1.77
2018-01-22T05:07:56.464Z,2.00
2018-01-22T05:10:22.730Z,1.80
2018-01-22T05:12:49.004Z,1.60
2018-01-22T05:15:15.221Z,1.27
2018-01-22T05:17:41.743Z,1.67
2018-01-22T05:20:08.160Z,1.93
2018-01-22T05:22:34.641Z,1.60
2018-01-22T05:25:01.003Z,1.70
2018-01-22T05:27:27.254Z,1.70
2018-01-22T05:29:53.458Z,1.80
2018-01-22T05:32:19.716Z,1.97
2018-01-22T05:34:45.930Z,1.80
2018-01-22T05:37:12.175Z,1.77
2018-01-22T05:39:38.419Z,1.80
2018-01-22T05:42:04.656Z,1.60
2018-01-22T05:44:31.235Z,1.90
2018-01-22T05:46:57.453Z,1.60
2018-01-22T05:49:23.678Z,2.00
2018-01-22T05:51:49.917Z,1.57
2018-01-22T05:54:16.139Z,1.87
2018-01-22T05:56:42.705Z,1.50
2018-01-22T05:59:09.258Z,1.90
2018-01-22T06:01:35.469Z,1.97
2018-01-22T06:04:01.766Z,1.73
2018-01-22T06:06:28.305Z,1.80
2018-01-22T06:08:54.522Z,1.80
2018-01-22T06:11:20.800Z,1.70
2018-01-22T06:13:47.164Z,1.97
2018-01-22T06:16:13.368Z,1.90
2018-01-22T06:18:39.644Z,2.03
2018-01-22T06:21:06.247Z,1.63
2018-01-22T06:23:32.448Z,1.80
2018-01-22T06:25:58.719Z,1.97
2018-01-22T06:28:25.317Z,1.60
2018-01-22T06:30:51.508Z,1.90
2018-01-22T06:33:17.738Z,1.80
2018-01-22T06:35:43.967Z,1.60
2018-01-22T06:38:10.195Z,1.60
2018-01-22T06:40:36.475Z,2.10
2018-01-22T06:43:02.740Z,1.70
2018-01-22T06:45:29.033Z,1.63
2018-01-22T06:47:55.304Z,1.80
2018-01-22T06:50:21.581Z,1.80
2018-01-22T06:52:47.903Z,1.53
2018-01-22T06:55:14.526Z,1.77
2018-01-22T06:57:40.739Z,2.30
2018-01-22T07:00:07.010Z,1.70
2018-01-22T07:02:33.263Z,1.63
2018-01-22T07:04:59.528Z,1.80
2018-01-22T07:07:25.750Z,1.70
2018-01-22T07:09:51.998Z,2.27
2018-01-22T07:12:18.206Z,1.93
2018-01-22T07:14:44.525Z,2.00
2018-01-22T07:17:10.714Z,2.17
2018-01-22T07:19:36.933Z,1.83
2018-01-22T07:22:03.873Z,1.90
2018-01-22T07:24:30.118Z,2.10
2018-01-22T07:26:56.376Z,1.90
2018-01-22T07:29:22.679Z,1.70
2018-01-22T07:31:48.863Z,1.87
2018-01-22T07:34:15.106Z,1.93
2018-01-22T07:36:41.382Z,1.83
2018-01-22T07:39:07.573Z,1.93
2018-01-22T07:41:33.844Z,2.10
2018-01-22T07:44:00.358Z,1.90
2018-01-22T07:46:26.587Z,2.00
2018-01-22T07:48:52.815Z,1.80
2018-01-22T07:51:19.311Z,1.90
2018-01-22T07:53:45.563Z,2.00
2018-01-22T07:56:11.803Z,1.77
2018-01-22T07:58:38.384Z,2.20
2018-01-22T08:01:04.583Z,1.87
2018-01-22T08:03:30.825Z,2.10
2018-01-22T08:05:57.399Z,1.70
2018-01-22T08:08:23.943Z,2.07
2018-01-22T08:10:50.238Z,2.00
2018-01-22T08:13:16.564Z,1.87
2018-01-22T08:15:42.885Z,2.20
2018-01-22T08:18:09.119Z,1.90
2018-01-22T08:20:35.683Z,2.10
2018-01-22T08:23:01.915Z,2.43
2018-01-22T08:25:28.167Z,2.07
2018-01-22T08:27:54.798Z,1.90
2018-01-22T08:30:21.022Z,1.80
2018-01-22T08:32:47.554Z,2.30
2018-01-22T08:35:13.838Z,2.03
2018-01-22T08:37:40.107Z,2.30
2018-01-22T08:40:06.348Z,1.90
2018-01-22T08:42:32.640Z,1.93
2018-01-22T08:44:58.821Z,2.40
2018-01-22T08:47:25.436Z,2.20
2018-01-22T08:49:51.722Z,2.10
2018-01-22T08:52:17.965Z,2.30
2018-01-22T08:54:44.208Z,2.60
2018-01-22T08:57:10.478Z,2.07
2018-01-22T08:59:36.679Z,2.10
2018-01-22T09:02:02.937Z,2.30
2018-01-22T09:04:29.515Z,2.40
2018-01-22T09:06:55.694Z,2.37
2018-01-22T09:09:21.921Z,1.97
2018-01-22T09:11:48.548Z,2.20
2018-01-22T09:14:14.794Z,1.90
2018-01-22T09:16:41.011Z,2.10
2018-01-22T09:19:07.283Z,2.13
2018-01-22T09:21:33.534Z,1.80
2018-01-22T09:23:59.738Z,2.20
2018-01-22T09:26:26.280Z,2.10
2018-01-22T09:28:52.587Z,2.30
2018-01-22T09:31:19.185Z,2.30
2018-01-22T09:33:45.819Z,2.27
2018-01-22T09:36:12.007Z,2.00
2018-01-22T09:38:38.341Z,2.27
2018-01-22T09:41:04.626Z,2.13
2018-01-22T09:43:30.829Z,1.90
2018-01-22T09:45:57.056Z,1.93
2018-01-22T09:48:23.750Z,1.90
2018-01-22T09:50:50.024Z,1.90
2018-01-22T09:53:16.242Z,1.63
2018-01-22T09:55:42.466Z,2.20
2018-01-22T09:58:08.677Z,2.20
2018-01-22T10:00:34.854Z,2.10
2018-01-22T10:03:01.216Z,2.00
2018-01-22T10:05:27.449Z,2.33
2018-01-22T10:07:53.773Z,2.00
2018-01-22T10:10:20.006Z,1.90
2018-01-22T10:12:46.222Z,2.30
2018-01-22T10:15:12.463Z,2.17
2018-01-22T10:17:38.696Z,2.60
2018-01-22T10:20:05.255Z,2.23
2018-01-22T10:22:31.461Z,2.10
2018-01-22T10:24:57.680Z,2.10
2018-01-22T10:27:24.014Z,2.50
2018-01-22T10:29:50.242Z,2.10
2018-01-22T10:32:16.418Z,2.17
2018-01-22T10:34:42.727Z,2.70
2018-01-22T10:37:08.916Z,2.27
2018-01-22T10:39:35.147Z,2.57
2018-01-22T10:42:01.431Z,2.03
2018-01-22T10:44:27.975Z,2.27
2018-01-22T10:46:54.213Z,2.27
2018-01-22T10:49:20.615Z,2.17
2018-01-22T10:51:46.821Z,1.90
2018-01-22T10:54:13.100Z,1.90
2018-01-22T10:56:39.432Z,2.03
2018-01-22T10:59:05.719Z,2.40
2018-01-22T11:01:31.931Z,2.13
2018-01-22T11:03:58.198Z,2.17
2018-01-22T11:06:24.494Z,2.23
2018-01-22T11:08:50.717Z,2.07
2018-01-22T11:11:17.102Z,1.80
2018-01-22T11:13:43.340Z,2.23
2018-01-22T11:16:10.396Z,2.00
2018-01-22T11:18:36.668Z,2.50
2018-01-22T11:21:02.901Z,2.00
2018-01-22T11:23:29.461Z,2.30
2018-01-22T11:25:55.801Z,2.20
2018-01-22T11:28:21.993Z,2.03
2018-01-22T11:30:48.218Z,2.10
2018-01-22T11:33:14.779Z,2.40
2018-01-22T11:35:41.039Z,2.60
2018-01-22T11:38:07.259Z,2.07
2018-01-22T11:40:33.568Z,2.00
2018-01-22T11:42:59.786Z,2.47
2018-01-22T11:45:25.965Z,2.30
2018-01-22T11:47:52.372Z,2.07
2018-01-22T11:50:18.599Z,2.17
2018-01-22T11:52:45.124Z,2.43
2018-01-22T11:55:11.399Z,2.27
2018-01-22T11:57:37.585Z,2.40
2018-01-22T12:00:04.212Z,2.70
2018-01-22T12:02:30.468Z,2.17
2018-01-22T12:04:56.695Z,2.20
2018-01-22T12:07:22.917Z,2.50
2018-01-22T12:09:49.192Z,2.87
2018-01-22T12:12:15.434Z,1.97
2018-01-22T12:14:41.659Z,2.40
2018-01-22T12:17:07.858Z,2.77
2018-01-22T12:19:34.156Z,2.67
2018-01-22T12:22:00.379Z,2.50
2018-01-22T12:24:26.594Z,2.47
2018-01-22T12:26:53.137Z,2.30
2018-01-22T12:29:19.358Z,2.90
2018-01-22T12:31:45.579Z,2.70
2018-01-22T12:34:11.778Z,2.00
2018-01-22T12:36:38.257Z,2.13
2018-01-22T12:39:04.529Z,2.53
2018-01-22T12:41:30.759Z,2.30
2018-01-22T12:43:57.067Z,3.07
2018-01-22T12:46:23.290Z,2.40
2018-01-22T12:48:49.647Z,2.83
2018-01-22T12:51:15.967Z,2.90
2018-01-22T12:53:42.468Z,2.17
2018-01-22T12:56:08.722Z,2.53
2018-01-22T12:58:35.020Z,2.53
2018-01-22T13:01:01.250Z,2.17
2018-01-22T13:03:27.520Z,1.97
2018-01-22T13:05:54.086Z,2.27
2018-01-22T13:08:20.291Z,2.93
2018-01-22T13:10:46.518Z,2.43
2018-01-22T13:13:12.777Z,2.77
2018-01-22T13:15:39.045Z,2.50
2018-01-22T13:18:05.360Z,2.40
2018-01-22T13:20:32.004Z,2.37
2018-01-22T13:22:58.226Z,2.20
2018-01-22T13:25:24.465Z,2.50
2018-01-22T13:27:50.726Z,2.80
2018-01-22T13:30:16.967Z,2.10
2018-01-22T13:32:43.170Z,2.50
2018-01-22T13:35:09.438Z,2.30
2018-01-22T13:37:35.692Z,2.30
2018-01-22T13:40:07.848Z,2.43
2018-01-22T13:42:34.479Z,2.30
2018-01-22T13:45:01.179Z,1.83
2018-01-22T13:47:27.430Z,1.80
2018-01-22T13:49:54.113Z,2.50
2018-01-22T13:52:20.580Z,2.80
2018-01-22T13:54:46.790Z,2.30
2018-01-22T13:57:13.027Z,2.30
2018-01-22T13:59:39.288Z,1.90
2018-01-22T14:02:05.511Z,2.40
2018-01-22T14:04:32.398Z,2.10
2018-01-22T14:06:58.627Z,2.10
2018-01-22T14:09:24.860Z,2.00
2018-01-22T14:11:51.224Z,2.43
2018-01-22T14:14:17.494Z,1.97
2018-01-22T14:16:44.030Z,2.40
2018-01-22T14:19:10.321Z,2.30
2018-01-22T14:21:36.552Z,2.00
2018-01-22T14:24:02.784Z,2.13
2018-01-22T14:26:29.518Z,1.90
2018-01-22T14:28:55.748Z,2.33
2018-01-22T14:31:22.025Z,1.80
2018-01-22T14:33:48.331Z,2.13
2018-01-22T14:36:14.550Z,1.90
2018-01-22T14:38:40.773Z,2.13
2018-01-22T14:41:07.084Z,2.20
2018-01-22T14:43:33.340Z,2.37
2018-01-22T14:45:59.521Z,1.87
2018-01-22T14:48:25.792Z,2.37
2018-01-22T14:50:52.058Z,2.20
2018-01-22T14:53:18.237Z,2.20
2018-01-22T14:55:44.654Z,2.50
2018-01-22T14:58:10.901Z,1.60
2018-01-22T15:00:37.179Z,1.80
2018-01-22T15:03:03.454Z,2.10
2018-01-22T15:05:29.650Z,1.97
2018-01-22T15:07:55.841Z,2.00
2018-01-22T15:10:22.074Z,1.70
2018-01-22T15:12:48.268Z,2.23
2018-01-22T15:15:14.829Z,2.00
2018-01-22T15:17:41.100Z,1.93
2018-01-22T15:20:07.730Z,2.30
2018-01-22T15:22:34.062Z,2.00
2018-01-22T15:25:00.284Z,2.17
2018-01-22T15:27:26.499Z,2.10
2018-01-22T15:29:52.800Z,2.00
2018-01-22T15:32:18.990Z,2.20
2018-01-22T15:34:45.230Z,2.10
2018-01-22T15:37:11.520Z,1.90
2018-01-22T15:39:37.790Z,1.60
2018-01-22T15:42:04.028Z,1.97
2018-01-22T15:44:30.320Z,2.10
2018-01-22T15:46:56.547Z,2.10
2018-01-22T15:49:22.790Z,2.10
2018-01-22T15:51:49.046Z,2.17
2018-01-22T15:54:15.272Z,2.23
2018-01-22T15:56:41.493Z,2.10
2018-01-22T15:59:08.059Z,1.90
2018-01-22T16:01:34.345Z,2.33
2018-01-22T16:04:00.595Z,2.20
2018-01-22T16:06:26.857Z,2.30
2018-01-22T16:08:53.051Z,2.00
2018-01-22T16:11:19.340Z,2.30
2018-01-22T16:13:45.646Z,2.60
2018-01-22T16:16:11.880Z,2.00
2018-01-22T16:18:38.090Z,2.00
2018-01-22T16:21:04.378Z,2.07
2018-01-22T16:23:30.877Z,2.30
2018-01-22T16:25:57.073Z,2.27
2018-01-22T16:28:23.629Z,1.77
2018-01-22T16:30:49.876Z,1.70
2018-01-22T16:33:16.111Z,2.00
2018-01-22T16:35:42.383Z,2.10
2018-01-22T16:38:08.641Z,2.03
2018-01-22T16:40:34.853Z,2.20
2018-01-22T16:43:01.131Z,1.63
2018-01-22T16:45:27.647Z,2.13
2018-01-22T16:47:56.756Z,1.80
2018-01-22T16:50:23.092Z,2.20
2018-01-22T16:52:49.326Z,1.80
2018-01-22T16:55:15.526Z,2.50
2018-01-22T16:57:41.754Z,1.90
2018-01-22T17:00:08.000Z,1.77
2018-01-22T17:02:34.263Z,2.00
2018-01-22T17:05:00.595Z,2.17
2018-01-22T17:07:26.831Z,2.00
2018-01-22T17:09:53.059Z,1.80
2018-01-22T17:12:19.255Z,1.87
2018-01-22T17:14:45.808Z,2.10
2018-01-22T17:17:12.032Z,1.83
2018-01-22T17:19:38.527Z,2.13
2018-01-22T17:22:04.836Z,1.90
2018-01-22T17:24:31.107Z,1.87
2018-01-22T17:26:57.362Z,2.27
2018-01-22T17:29:23.662Z,2.30
2018-01-22T17:31:50.293Z,1.60
2018-01-22T17:34:16.523Z,1.93
2018-01-22T17:36:42.743Z,2.03
2018-01-22T17:39:08.937Z,1.80
2018-01-22T17:41:35.163Z,1.93
2018-01-22T17:44:01.444Z,1.90
2018-01-22T17:46:27.969Z,1.70
2018-01-22T17:48:54.176Z,1.57
2018-01-22T17:51:20.431Z,1.93
2018-01-22T17:53:46.642Z,2.10
2018-01-22T17:56:12.877Z,2.23
2018-01-22T17:58:39.142Z,2.10
2018-01-22T18:01:05.618Z,1.93
2018-01-22T18:03:31.906Z,2.13
2018-01-22T18:05:58.099Z,1.60
2018-01-22T18:08:24.336Z,2.10
2018-01-22T18:10:50.939Z,1.63
2018-01-22T18:13:17.208Z,1.90
2018-01-22T18:15:43.460Z,2.00
2018-01-22T18:18:09.728Z,2.00
2018-01-22T18:20:36.279Z,2.13
2018-01-22T18:23:02.529Z,2.40
2018-01-22T18:25:28.782Z,2.17
2018-01-22T18:27:55.098Z,1.90
2018-01-22T18:30:21.322Z,2.27
2018-01-22T18:32:47.551Z,1.90
2018-01-22T18:35:13.771Z,2.00
2018-01-22T18:37:40.291Z,1.60
2018-01-22T18:40:06.608Z,2.00
2018-01-22T18:42:32.790Z,2.33
2018-01-22T18:44:59.026Z,2.40
2018-01-22T18:47:25.362Z,2.10
2018-01-22T18:49:51.666Z,2.13
2018-01-22T18:52:17.859Z,2.00
2018-01-22T18:54:44.512Z,1.90
2018-01-22T18:57:11.041Z,1.70
2018-01-22T18:59:37.278Z,2.00
2018-01-22T19:02:03.665Z,2.10
2018-01-22T19:04:29.940Z,1.90
2018-01-22T19:06:56.374Z,2.00
2018-01-22T19:09:22.647Z,1.97
2018-01-22T19:11:48.881Z,1.83
2018-01-22T19:14:15.126Z,2.03
2018-01-22T19:16:41.395Z,2.10
2018-01-22T19:19:08.021Z,2.00
2018-01-22T19:21:34.551Z,1.80
2018-01-22T19:24:00.851Z,1.90
2018-01-22T19:26:27.090Z,1.63
2018-01-22T19:28:53.371Z,1.93
2018-01-22T19:31:19.993Z,1.80
2018-01-22T19:33:46.247Z,1.70
2018-01-22T19:36:12.459Z,1.83
2018-01-22T19:38:38.791Z,1.73
2018-01-22T19:41:05.406Z,1.80
2018-01-22T19:43:32.744Z,2.27
2018-01-22T19:45:59.364Z,2.40
2018-01-22T19:48:25.634Z,2.50
2018-01-22T19:50:51.837Z,2.50
2018-01-22T19:53:18.196Z,2.70
2018-01-22T19:55:44.420Z,2.77
2018-01-22T19:58:10.699Z,2.50
2018-01-22T20:00:36.983Z,2.20
2018-01-22T20:03:03.206Z,2.33
2018-01-22T20:05:29.440Z,2.70
2018-01-22T20:07:55.690Z,3.07
2018-01-22T20:10:22.146Z,1.90
2018-01-22T20:12:48.368Z,3.03
2018-01-22T20:15:14.651Z,2.47
2018-01-22T20:17:40.899Z,2.40
2018-01-22T20:20:07.160Z,2.77
2018-01-22T20:22:33.434Z,2.40
2018-01-22T20:24:59.626Z,2.70
2018-01-22T20:27:25.844Z,2.60
2018-01-22T20:29:52.352Z,2.40
2018-01-22T20:32:18.533Z,2.90
2018-01-22T20:34:44.714Z,2.77
2018-01-22T20:37:11.013Z,2.40
2018-01-22T20:39:37.202Z,2.63
2018-01-22T20:42:03.459Z,2.83
2018-01-22T20:44:30.102Z,2.90
2018-01-22T20:46:56.285Z,3.03
2018-01-22T20:49:22.573Z,3.70
2018-01-22T20:51:48.777Z,2.83
2018-01-22T20:54:15.140Z,3.37
2018-01-22T20:56:41.437Z,3.33
2018-01-22T20:59:07.675Z,3.10
2018-01-22T21:01:33.886Z,3.00
2018-01-22T21:04:00.180Z,2.53
2018-01-22T21:06:26.468Z,3.50
2018-01-22T21:08:52.913Z,3.83
2018-01-22T21:11:19.194Z,2.90
2018-01-22T21:13:45.434Z,2.80
2018-01-22T21:16:11.637Z,3.43
2018-01-22T21:18:38.183Z,2.90
2018-01-22T21:21:04.427Z,2.83
2018-01-22T21:23:30.728Z,2.63
2018-01-22T21:25:57.052Z,2.53
2018-01-22T21:28:23.290Z,2.70
2018-01-22T21:30:49.572Z,3.50
2018-01-22T21:33:15.900Z,2.83
2018-01-22T21:35:42.117Z,2.77
2018-01-22T21:38:08.551Z,2.40
2018-01-22T21:40:35.194Z,3.00
2018-01-22T21:43:01.836Z,3.10
2018-01-22T21:45:28.365Z,2.83
2018-01-22T21:47:55.000Z,2.73
2018-01-22T21:50:21.258Z,2.70
2018-01-22T21:52:47.496Z,2.80
2018-01-22T21:55:13.718Z,3.07
2018-01-22T21:57:40.217Z,2.63
2018-01-22T22:00:06.797Z,3.20
2018-01-22T22:02:33.007Z,2.20
2018-01-22T22:04:59.208Z,2.77
2018-01-22T22:07:25.448Z,2.70
2018-01-22T22:09:51.766Z,2.43
2018-01-22T22:12:17.976Z,2.80
2018-01-22T22:14:44.240Z,2.60
2018-01-22T22:17:10.478Z,2.23
2018-01-22T22:19:36.735Z,2.70
2018-01-22T22:22:03.016Z,2.93
2018-01-22T22:24:29.553Z,2.20
2018-01-22T22:26:55.812Z,2.60
2018-01-22T22:29:22.141Z,2.37
2018-01-22T22:31:48.427Z,2.70
2018-01-22T22:34:14.624Z,2.20
2018-01-22T22:36:40.840Z,2.90
2018-01-22T22:39:07.144Z,2.67
2018-01-22T22:41:33.366Z,2.70
2018-01-22T22:43:59.684Z,2.67
2018-01-22T22:46:25.996Z,2.63
2018-01-22T22:48:58.358Z,2.47
2018-01-22T22:51:24.628Z,2.83
2018-01-22T22:53:50.908Z,2.60
2018-01-22T22:56:17.188Z,2.87
2018-01-22T22:58:43.428Z,2.67
2018-01-22T23:01:09.927Z,2.30
2018-01-22T23:03:36.197Z,2.83
2018-01-22T23:06:02.460Z,1.93
2018-01-22T23:08:28.731Z,2.40
2018-01-22T23:10:54.960Z,2.70
2018-01-22T23:13:21.482Z,2.47
2018-01-22T23:15:47.997Z,2.03
2018-01-22T23:18:14.213Z,2.30
2018-01-22T23:20:40.411Z,2.33
2018-01-22T23:23:06.704Z,2.77
2018-01-22T23:25:32.939Z,2.23
2018-01-22T23:27:59.161Z,2.40
2018-01-22T23:30:25.452Z,2.27
2018-01-22T23:32:51.695Z,2.47
2018-01-22T23:35:18.016Z,2.77
2018-01-22T23:37:44.216Z,2.50
2018-01-22T23:40:10.438Z,2.10
2018-01-22T23:42:37.038Z,2.20
2018-01-22T23:45:03.363Z,2.17
2018-01-22T23:47:29.626Z,2.53
2018-01-22T23:49:56.126Z,2.60
2018-01-22T23:52:22.407Z,2.10
2018-01-22T23:54:48.758Z,1.93
2018-01-22T23:57:15.008Z,2.20
2018-01-22T23:59:41.227Z,2.30
